Time;durP1;ratioP1;P1;durP2;ratioP2;P2;SDS_P1;SDS_P2;PMS_P1;PMS_P2;Temp;Humidity;BMP_temperature;BMP_pressure;BME280_temperature;BME280_humidity;BME280_pressure;Samples;Min_cycle;Max_cycle;Signal;HPM_P1;HPM_P2
2022/08/02 00:01:45;;;;;;;;;;;21.70;48.40;;;;;;484537;246;1152;-50
2022/08/02 00:03:46;;;;;;;;;;;21.70;48.40;;;;;;484109;246;2291;-50
2022/08/02 00:05:48;;;;;;;;;;;21.70;48.30;;;;;;484489;246;1203;-50
2022/08/02 00:07:49;;;;;;;;;;;21.70;48.40;;;;;;484063;246;1236;-50
2022/08/02 00:09:50;;;;;;;;;;;21.60;48.40;;;;;;484074;246;1227;-50
2022/08/02 00:11:52;;;;;;;;;;;21.60;48.50;;;;;;484545;246;970;-50
2022/08/02 00:13:53;;;;;;;;;;;21.60;48.50;;;;;;484473;246;1238;-50
2022/08/02 00:15:54;;;;;;;;;;;21.70;48.50;;;;;;484099;246;1085;-50
2022/08/02 00:17:56;;;;;;;;;;;21.70;48.50;;;;;;484138;246;1181;-50
2022/08/02 00:19:57;;;;;;;;;;;21.60;48.40;;;;;;484549;246;1211;-50
2022/08/02 00:21:58;;;;;;;;;;;21.60;48.50;;;;;;484090;246;1247;-50
2022/08/02 00:24:00;;;;;;;;;;;21.60;48.40;;;;;;484060;246;2220;-50
2022/08/02 00:26:01;;;;;;;;;;;21.60;48.50;;;;;;484501;246;1234;-50
2022/08/02 00:28:03;;;;;;;;;;;21.60;48.60;;;;;;484508;246;1224;-50
2022/08/02 00:30:04;;;;;;;;;;;21.60;48.50;;;;;;484565;246;1256;-50
2022/08/02 00:32:05;;;;;;;;;;;21.60;48.50;;;;;;484095;246;1276;-50
2022/08/02 00:34:06;;;;;;;;;;;21.60;48.40;;;;;;484108;246;1209;-50
2022/08/02 00:36:08;;;;;;;;;;;21.60;48.50;;;;;;484161;246;1235;-50
2022/08/02 00:38:09;;;;;;;;;;;21.70;48.50;;;;;;484470;246;1671;-50
2022/08/02 00:40:10;;;;;;;;;;;21.70;48.50;;;;;;484312;246;1284;-50
2022/08/02 00:42:12;;;;;;;;;;;21.70;48.50;;;;;;484037;246;1403;-50
2022/08/02 00:44:13;;;;;;;;;;;21.60;48.50;;;;;;491465;243;2199;-49
2022/08/02 00:46:14;;;;;;;;;;;21.70;48.50;;;;;;484849;246;1198;-50
2022/08/02 00:48:16;;;;;;;;;;;21.60;48.50;;;;;;484328;246;1237;-50
2022/08/02 00:50:17;;;;;;;;;;;21.60;48.50;;;;;;484508;246;1255;-50
2022/08/02 00:52:18;;;;;;;;;;;21.60;48.50;;;;;;484510;246;1122;-50
2022/08/02 00:54:20;;;;;;;;;;;21.60;48.50;;;;;;484009;246;1100;-50
2022/08/02 00:56:21;;;;;;;;;;;21.70;48.60;;;;;;484296;246;1107;-50
2022/08/02 00:58:22;;;;;;;;;;;21.60;48.50;;;;;;484455;246;1053;-50
2022/08/02 01:00:24;;;;;;;;;;;21.60;48.50;;;;;;484070;246;1088;-50
2022/08/02 01:02:25;;;;;;;;;;;21.60;48.50;;;;;;484274;246;1032;-50
2022/08/02 01:04:26;;;;;;;;;;;21.60;48.60;;;;;;484161;246;2188;-50
2022/08/02 01:06:32;;;;;;;;;;;21.60;48.60;;;;;;484137;246;1066;-50
2022/08/02 01:08:29;;;;;;;;;;;21.60;48.60;;;;;;483984;246;1750;-50
2022/08/02 01:10:30;;;;;;;;;;;21.60;48.60;;;;;;484083;246;1048;-50
2022/08/02 01:12:32;;;;;;;;;;;21.60;48.50;;;;;;484150;246;1070;-50
2022/08/02 01:14:33;;;;;;;;;;;21.60;48.60;;;;;;484310;246;1075;-49
2022/08/02 01:16:34;;;;;;;;;;;21.70;48.60;;;;;;484561;246;1101;-50
2022/08/02 01:18:36;;;;;;;;;;;21.60;48.50;;;;;;484319;246;1144;-50
2022/08/02 01:20:37;;;;;;;;;;;21.60;48.60;;;;;;484103;246;1044;-50
2022/08/02 01:22:38;;;;;;;;;;;21.60;48.60;;;;;;484087;246;1060;-50
2022/08/02 01:24:40;;;;;;;;;;;21.60;48.60;;;;;;484540;246;2121;-50
2022/08/02 01:26:41;;;;;;;;;;;21.60;48.60;;;;;;484536;246;1050;-50
2022/08/02 01:28:42;;;;;;;;;;;21.60;48.60;;;;;;484501;246;1143;-50
2022/08/02 01:30:44;;;;;;;;;;;21.60;48.60;;;;;;484371;246;1228;-50
2022/08/02 01:32:45;;;;;;;;;;;21.60;48.70;;;;;;484543;246;1087;-50
2022/08/02 01:34:46;;;;;;;;;;;21.60;48.60;;;;;;484130;246;1402;-50
2022/08/02 01:36:48;;;;;;;;;;;21.60;48.60;;;;;;484537;246;1178;-50
2022/08/02 01:38:49;;;;;;;;;;;21.60;48.60;;;;;;484041;246;1274;-50
2022/08/02 01:40:50;;;;;;;;;;;21.60;48.70;;;;;;484052;246;1540;-49
2022/08/02 01:42:52;;;;;;;;;;;21.60;48.70;;;;;;484488;246;1233;-50
2022/08/02 01:44:53;;;;;;;;;;;21.60;48.70;;;;;;484086;246;2203;-50
2022/08/02 01:46:54;;;;;;;;;;;21.60;48.70;;;;;;484553;246;1296;-50
2022/08/02 01:48:56;;;;;;;;;;;21.60;48.60;;;;;;484070;246;1297;-50
2022/08/02 01:50:57;;;;;;;;;;;21.60;48.70;;;;;;484091;246;1219;-50
2022/08/02 01:52:58;;;;;;;;;;;21.60;48.70;;;;;;484507;246;1340;-50
2022/08/02 01:55:00;;;;;;;;;;;21.60;48.70;;;;;;484550;246;1210;-50
2022/08/02 01:57:01;;;;;;;;;;;21.60;48.70;;;;;;484505;246;1252;-50
2022/08/02 01:59:02;;;;;;;;;;;21.60;48.70;;;;;;484089;246;1343;-50
2022/08/02 02:01:04;;;;;;;;;;;21.60;48.70;;;;;;484541;246;1037;-50
2022/08/02 02:03:05;;;;;;;;;;;21.60;48.70;;;;;;484480;246;1187;-50
2022/08/02 02:05:06;;;;;;;;;;;21.60;48.70;;;;;;484023;246;2195;-50
2022/08/02 02:07:08;;;;;;;;;;;21.60;48.70;;;;;;484448;246;1062;-50
2022/08/02 02:09:09;;;;;;;;;;;21.60;48.70;;;;;;484105;246;1100;-51
2022/08/02 02:11:10;;;;;;;;;;;21.70;48.70;;;;;;484572;246;962;-50
2022/08/02 02:13:12;;;;;;;;;;;21.60;48.70;;;;;;484125;246;1069;-50
2022/08/02 02:15:13;;;;;;;;;;;21.60;48.70;;;;;;484098;246;1095;-50
2022/08/02 02:17:14;;;;;;;;;;;21.60;48.80;;;;;;484407;246;1160;-49
2022/08/02 02:19:16;;;;;;;;;;;21.60;48.80;;;;;;484380;246;1118;-50
2022/08/02 02:21:17;;;;;;;;;;;21.60;48.80;;;;;;484407;246;1054;-50
2022/08/02 02:23:18;;;;;;;;;;;21.60;48.80;;;;;;484225;246;1079;-50
2022/08/02 02:25:20;;;;;;;;;;;21.60;48.70;;;;;;484324;246;2131;-50
2022/08/02 02:27:23;;;;;;;;;;;21.60;48.80;;;;;;484037;246;1087;-50
2022/08/02 02:29:23;;;;;;;;;;;21.60;48.80;;;;;;483917;246;2035;-50
2022/08/02 02:31:24;;;;;;;;;;;21.60;48.70;;;;;;484254;246;1043;-50
2022/08/02 02:33:25;;;;;;;;;;;21.60;48.70;;;;;;484118;246;1039;-50
2022/08/02 02:35:27;;;;;;;;;;;21.60;48.70;;;;;;484128;246;1281;-50
2022/08/02 02:37:28;;;;;;;;;;;21.60;48.70;;;;;;484089;246;1161;-50
2022/08/02 02:39:29;;;;;;;;;;;21.60;48.80;;;;;;484100;246;1303;-49
2022/08/02 02:41:31;;;;;;;;;;;21.60;48.80;;;;;;484559;246;1213;-50
2022/08/02 02:43:32;;;;;;;;;;;21.60;48.70;;;;;;484498;246;1335;-50
2022/08/02 02:45:33;;;;;;;;;;;21.60;48.80;;;;;;484543;246;2194;-50
2022/08/02 02:47:35;;;;;;;;;;;21.60;48.80;;;;;;484119;246;1215;-50
2022/08/02 02:49:36;;;;;;;;;;;21.60;48.70;;;;;;484402;246;1340;-50
2022/08/02 02:51:37;;;;;;;;;;;21.60;48.70;;;;;;484463;246;1150;-50
2022/08/02 02:53:39;;;;;;;;;;;21.60;48.80;;;;;;484534;246;1052;-50
2022/08/02 02:55:40;;;;;;;;;;;21.60;48.80;;;;;;484209;246;1629;-50
2022/08/02 02:57:41;;;;;;;;;;;21.60;48.80;;;;;;484295;246;1057;-50
2022/08/02 02:59:43;;;;;;;;;;;21.60;48.80;;;;;;484160;246;1085;-50
2022/08/02 03:01:44;;;;;;;;;;;21.60;48.80;;;;;;484113;246;1050;-50
2022/08/02 03:03:45;;;;;;;;;;;21.60;48.80;;;;;;484577;246;1062;-50
2022/08/02 03:05:47;;;;;;;;;;;21.60;48.80;;;;;;484195;239;2192;-51
2022/08/02 03:07:48;;;;;;;;;;;21.60;48.80;;;;;;484621;246;1073;-50
2022/08/02 03:09:49;;;;;;;;;;;21.60;48.80;;;;;;484603;246;1105;-50
2022/08/02 03:11:51;;;;;;;;;;;21.60;48.90;;;;;;484582;246;1065;-50
2022/08/02 03:13:52;;;;;;;;;;;21.60;48.80;;;;;;484138;246;1089;-50
2022/08/02 03:15:53;;;;;;;;;;;21.60;48.80;;;;;;484326;246;1050;-50
2022/08/02 03:17:55;;;;;;;;;;;21.60;48.80;;;;;;484549;246;991;-50
2022/08/02 03:19:56;;;;;;;;;;;21.60;48.80;;;;;;484059;246;1139;-50
2022/08/02 03:21:58;;;;;;;;;;;21.60;48.80;;;;;;484470;246;1081;-50
2022/08/02 03:23:59;;;;;;;;;;;21.60;48.80;;;;;;484111;246;1077;-50
2022/08/02 03:26:00;;;;;;;;;;;21.60;48.90;;;;;;491556;243;2184;-50
2022/08/02 03:28:02;;;;;;;;;;;21.60;48.80;;;;;;484462;246;1121;-50
2022/08/02 03:30:03;;;;;;;;;;;21.60;48.80;;;;;;484172;246;1124;-50
2022/08/02 03:32:04;;;;;;;;;;;21.60;48.80;;;;;;484479;246;1261;-50
2022/08/02 03:34:06;;;;;;;;;;;21.60;48.80;;;;;;484152;246;1129;-49
2022/08/02 03:36:08;;;;;;;;;;;21.60;48.80;;;;;;484102;246;1177;-50
2022/08/02 03:38:09;;;;;;;;;;;21.60;48.80;;;;;;484130;246;1075;-50
2022/08/02 03:40:10;;;;;;;;;;;21.60;48.80;;;;;;484298;246;1135;-50
2022/08/02 03:42:11;;;;;;;;;;;21.60;48.80;;;;;;484260;246;1047;-50
2022/08/02 03:44:13;;;;;;;;;;;21.60;48.80;;;;;;484557;246;1052;-50
2022/08/02 03:46:14;;;;;;;;;;;21.60;48.90;;;;;;484589;246;2116;-50
2022/08/02 03:48:16;;;;;;;;;;;21.60;48.90;;;;;;484358;246;1064;-50
2022/08/02 03:50:17;;;;;;;;;;;21.60;48.90;;;;;;484366;246;1156;-50
2022/08/02 03:52:18;;;;;;;;;;;21.60;48.90;;;;;;484553;246;1073;-50
2022/08/02 03:54:20;;;;;;;;;;;21.60;48.90;;;;;;484075;246;1080;-50
2022/08/02 03:56:21;;;;;;;;;;;21.60;48.90;;;;;;484346;246;1059;-50
2022/08/02 03:58:22;;;;;;;;;;;21.60;48.90;;;;;;484414;246;1070;-50
2022/08/02 04:00:23;;;;;;;;;;;21.60;48.90;;;;;;484101;246;1088;-50
2022/08/02 04:02:25;;;;;;;;;;;21.60;48.90;;;;;;484209;246;1554;-50
2022/08/02 04:04:26;;;;;;;;;;;21.60;48.90;;;;;;484067;246;1290;-50
2022/08/02 04:06:27;;;;;;;;;;;21.60;48.90;;;;;;484106;246;2156;-50
2022/08/02 04:08:29;;;;;;;;;;;21.60;48.90;;;;;;484149;246;1179;-49
2022/08/02 04:10:30;;;;;;;;;;;21.60;48.90;;;;;;484499;246;1378;-50
2022/08/02 04:12:32;;;;;;;;;;;21.60;48.90;;;;;;483917;246;1189;-50
2022/08/02 04:14:33;;;;;;;;;;;21.60;48.80;;;;;;484414;246;1278;-50
2022/08/02 04:16:34;;;;;;;;;;;21.60;48.90;;;;;;484296;246;1164;-50
2022/08/02 04:18:36;;;;;;;;;;;21.60;48.90;;;;;;484389;246;1513;-50
2022/08/02 04:20:38;;;;;;;;;;;21.60;48.90;;;;;;484264;246;1203;-50
2022/08/02 04:22:39;;;;;;;;;;;21.60;48.90;;;;;;484339;246;1273;-50
2022/08/02 04:24:41;;;;;;;;;;;21.60;48.90;;;;;;484072;246;1209;-50
2022/08/02 04:26:42;;;;;;;;;;;21.60;48.90;;;;;;484012;246;2199;-50
2022/08/02 04:28:44;;;;;;;;;;;21.60;48.90;;;;;;483887;246;1221;-50
2022/08/02 04:30:45;;;;;;;;;;;21.60;49.00;;;;;;484296;246;1146;-50
2022/08/02 04:32:46;;;;;;;;;;;21.60;49.00;;;;;;484281;246;1221;-50
2022/08/02 04:34:47;;;;;;;;;;;21.60;48.90;;;;;;484309;246;1212;-50
2022/08/02 04:36:49;;;;;;;;;;;21.60;48.90;;;;;;483865;246;1702;-50
2022/08/02 04:38:50;;;;;;;;;;;21.60;49.00;;;;;;484291;246;1307;-50
2022/08/02 04:40:51;;;;;;;;;;;21.60;49.00;;;;;;483890;246;1246;-50
2022/08/02 04:42:53;;;;;;;;;;;21.60;49.00;;;;;;483787;246;1533;-50
2022/08/02 04:44:54;;;;;;;;;;;21.60;48.90;;;;;;484070;246;1217;-50
2022/08/02 04:46:57;;;;;;;;;;;21.60;49.00;;;;;;484365;246;2124;-50
2022/08/02 04:48:57;;;;;;;;;;;21.60;48.90;;;;;;483839;246;2150;-50
2022/08/02 04:50:58;;;;;;;;;;;21.60;49.00;;;;;;483964;246;1606;-50
2022/08/02 04:52:59;;;;;;;;;;;21.60;49.00;;;;;;484194;246;1360;-50
2022/08/02 04:55:01;;;;;;;;;;;21.60;48.90;;;;;;483966;246;1330;-50
2022/08/02 04:57:53;;;;;;;;;;;21.60;48.90;;;;;;483892;246;1266;-50
2022/08/02 04:59:03;;;;;;;;;;;21.60;49.00;;;;;;482627;246;1242;-50
2022/08/02 05:01:05;;;;;;;;;;;21.60;49.00;;;;;;483965;246;1216;-50
2022/08/02 05:03:06;;;;;;;;;;;21.60;48.90;;;;;;483924;246;1232;-50
2022/08/02 05:05:07;;;;;;;;;;;21.60;48.90;;;;;;483850;246;1486;-50
2022/08/02 05:07:09;;;;;;;;;;;21.60;48.90;;;;;;483940;246;2109;-50
2022/08/02 05:09:10;;;;;;;;;;;21.60;48.90;;;;;;483818;246;1057;-50
2022/08/02 05:11:11;;;;;;;;;;;21.60;48.90;;;;;;483734;246;1164;-50
2022/08/02 05:13:13;;;;;;;;;;;21.60;48.90;;;;;;483821;246;1203;-50
2022/08/02 05:15:16;;;;;;;;;;;21.60;48.90;;;;;;483889;246;1025;-50
2022/08/02 05:17:16;;;;;;;;;;;21.60;48.90;;;;;;483727;246;1900;-50
2022/08/02 05:19:17;;;;;;;;;;;21.60;48.90;;;;;;483846;246;1157;-49
2022/08/02 05:21:18;;;;;;;;;;;21.60;49.00;;;;;;483888;246;1200;-50
2022/08/02 05:23:20;;;;;;;;;;;21.60;49.10;;;;;;483875;246;1187;-49
2022/08/02 05:25:21;;;;;;;;;;;21.60;49.30;;;;;;483724;246;2145;-50
2022/08/02 05:27:22;;;;;;;;;;;21.60;49.40;;;;;;483667;246;1249;-50
2022/08/02 05:29:24;;;;;;;;;;;21.60;49.40;;;;;;484042;246;1575;-50
2022/08/02 05:31:25;;;;;;;;;;;21.60;49.30;;;;;;483926;246;1234;-50
2022/08/02 05:33:26;;;;;;;;;;;21.60;49.20;;;;;;483701;246;1155;-50
2022/08/02 05:35:28;;;;;;;;;;;21.60;49.20;;;;;;491243;243;1084;-50
2022/08/02 05:37:30;;;;;;;;;;;21.60;49.10;;;;;;484198;246;1291;-50
2022/08/02 05:39:30;;;;;;;;;;;21.60;49.00;;;;;;483984;246;2010;-50
2022/08/02 05:41:32;;;;;;;;;;;21.60;48.90;;;;;;483830;246;1240;-50
2022/08/02 05:43:34;;;;;;;;;;;21.60;48.80;;;;;;483623;246;1128;-50
2022/08/02 05:45:35;;;;;;;;;;;21.60;48.80;;;;;;483741;246;2209;-50
2022/08/02 05:47:36;;;;;;;;;;;21.70;48.80;;;;;;484046;246;1280;-50
2022/08/02 05:49:38;;;;;;;;;;;21.70;48.70;;;;;;483829;246;1164;-50
2022/08/02 05:51:39;;;;;;;;;;;21.60;48.60;;;;;;483712;246;1217;-49
2022/08/02 05:53:41;;;;;;;;;;;21.60;48.60;;;;;;483780;246;1276;-51
2022/08/02 05:55:42;;;;;;;;;;;21.60;48.50;;;;;;483853;246;1266;-50
2022/08/02 05:57:43;;;;;;;;;;;21.60;48.40;;;;;;483717;246;1165;-50
2022/08/02 05:59:45;;;;;;;;;;;21.60;48.30;;;;;;483740;246;1280;-50
2022/08/02 06:01:46;;;;;;;;;;;21.60;48.30;;;;;;483825;246;1113;-50
2022/08/02 06:03:47;;;;;;;;;;;21.60;48.30;;;;;;483598;246;1076;-50
2022/08/02 06:05:49;;;;;;;;;;;21.60;48.20;;;;;;483565;246;2203;-50
2022/08/02 06:07:50;;;;;;;;;;;21.60;48.10;;;;;;483612;246;1170;-50
2022/08/02 06:09:51;;;;;;;;;;;21.60;48.10;;;;;;483652;246;1176;-50
2022/08/02 06:11:53;;;;;;;;;;;21.60;48.00;;;;;;483463;246;1102;-50
2022/08/02 06:13:54;;;;;;;;;;;21.60;48.00;;;;;;483687;246;1224;-50
2022/08/02 06:15:58;;;;;;;;;;;21.60;48.00;;;;;;483771;246;1224;-50
2022/08/02 06:17:56;;;;;;;;;;;21.60;48.00;;;;;;483585;246;1382;-50
2022/08/02 06:19:58;;;;;;;;;;;21.60;48.00;;;;;;483725;246;1222;-50
2022/08/02 06:22:13;;;;;;;;;;;21.60;47.90;;;;;;484000;246;1129;-50
2022/08/02 06:24:01;;;;;;;;;;;21.60;48.00;;;;;;482529;246;1421;-50
2022/08/02 06:26:02;;;;;;;;;;;21.60;47.90;;;;;;483688;246;2204;-50
2022/08/02 06:28:03;;;;;;;;;;;21.60;47.90;;;;;;483869;246;1064;-50
2022/08/02 06:30:05;;;;;;;;;;;21.60;47.80;;;;;;483749;246;1079;-50
2022/08/02 06:32:06;;;;;;;;;;;21.60;47.80;;;;;;483732;246;1054;-50
2022/08/02 06:34:08;;;;;;;;;;;21.70;47.80;;;;;;483638;246;1212;-50
2022/08/02 06:36:09;;;;;;;;;;;21.60;47.80;;;;;;483711;246;1089;-50
2022/08/02 06:38:10;;;;;;;;;;;21.60;47.80;;;;;;483662;246;1253;-50
2022/08/02 06:40:12;;;;;;;;;;;21.60;47.80;;;;;;483692;246;1167;-50
2022/08/02 06:42:13;;;;;;;;;;;21.60;47.80;;;;;;483506;246;1040;-50
2022/08/02 06:44:14;;;;;;;;;;;21.60;47.70;;;;;;483503;246;1257;-50
2022/08/02 06:46:16;;;;;;;;;;;21.60;47.70;;;;;;482972;246;2184;-50
2022/08/02 06:48:17;;;;;;;;;;;21.60;47.80;;;;;;483271;246;1101;-50
2022/08/02 06:50:19;;;;;;;;;;;21.60;47.70;;;;;;483370;246;1088;-50
2022/08/02 06:52:20;;;;;;;;;;;21.60;47.70;;;;;;483288;246;1158;-50
2022/08/02 06:54:21;;;;;;;;;;;21.60;47.70;;;;;;483229;246;1162;-50
2022/08/02 06:56:23;;;;;;;;;;;21.60;47.70;;;;;;483378;246;1096;-50
2022/08/02 06:58:24;;;;;;;;;;;21.60;47.70;;;;;;490811;242;1233;-49
2022/08/02 07:00:25;;;;;;;;;;;21.60;47.70;;;;;;483679;246;1094;-49
2022/08/02 07:02:27;;;;;;;;;;;21.60;47.80;;;;;;483144;246;1225;-50
2022/08/02 07:04:28;;;;;;;;;;;21.50;48.10;;;;;;483295;246;1089;-50
2022/08/02 07:06:29;;;;;;;;;;;21.50;48.00;;;;;;483225;246;2184;-50
2022/08/02 07:08:31;;;;;;;;;;;21.60;47.90;;;;;;483397;246;1169;-49
2022/08/02 07:10:32;;;;;;;;;;;21.60;47.80;;;;;;483232;246;1164;-50
2022/08/02 07:12:34;;;;;;;;;;;21.60;47.70;;;;;;483133;246;1237;-49
2022/08/02 07:14:35;;;;;;;;;;;21.60;47.70;;;;;;483339;246;1127;-50
2022/08/02 07:16:36;;;;;;;;;;;21.60;47.70;;;;;;483261;246;1288;-50
2022/08/02 07:18:37;;;;;;;;;;;21.60;47.70;;;;;;483304;246;1245;-50
2022/08/02 07:20:39;;;;;;;;;;;21.60;47.70;;;;;;483175;246;1497;-50
2022/08/02 07:22:40;;;;;;;;;;;21.60;47.70;;;;;;483667;246;1244;-50
2022/08/02 07:24:42;;;;;;;;;;;21.60;47.60;;;;;;483339;246;1244;-50
2022/08/02 07:26:43;;;;;;;;;;;21.60;47.60;;;;;;483223;246;2128;-50
2022/08/02 07:28:44;;;;;;;;;;;21.60;47.70;;;;;;483241;246;1219;-50
2022/08/02 07:30:45;;;;;;;;;;;21.60;47.60;;;;;;483231;246;1267;-50
2022/08/02 07:32:47;;;;;;;;;;;21.60;47.60;;;;;;483340;246;1159;-50
2022/08/02 07:34:48;;;;;;;;;;;21.60;47.60;;;;;;483292;246;1270;-50
2022/08/02 07:36:49;;;;;;;;;;;21.70;47.60;;;;;;483400;246;1199;-50
2022/08/02 07:38:51;;;;;;;;;;;21.60;47.60;;;;;;483056;246;1268;-50
2022/08/02 07:40:52;;;;;;;;;;;21.60;47.50;;;;;;483249;246;1730;-50
2022/08/02 07:42:53;;;;;;;;;;;21.60;47.50;;;;;;483378;246;1156;-50
2022/08/02 07:44:55;;;;;;;;;;;21.60;47.60;;;;;;483292;246;1249;-50
2022/08/02 07:46:56;;;;;;;;;;;21.60;47.60;;;;;;483294;246;2342;-50
2022/08/02 07:48:58;;;;;;;;;;;21.60;47.60;;;;;;483316;246;1204;-50
2022/08/02 07:50:59;;;;;;;;;;;21.60;47.50;;;;;;483277;246;1151;-50
2022/08/02 07:53:00;;;;;;;;;;;21.60;47.50;;;;;;483248;246;1290;-50
2022/08/02 07:55:02;;;;;;;;;;;21.60;47.50;;;;;;483603;246;1255;-50
2022/08/02 07:57:03;;;;;;;;;;;21.60;47.50;;;;;;490824;242;1468;-50
2022/08/02 07:59:04;;;;;;;;;;;21.60;47.50;;;;;;483635;246;1256;-49
2022/08/02 08:01:06;;;;;;;;;;;21.60;47.60;;;;;;483248;246;1221;-50
2022/08/02 08:03:07;;;;;;;;;;;21.60;47.60;;;;;;483178;246;1341;-50
2022/08/02 08:05:08;;;;;;;;;;;21.60;47.50;;;;;;483373;246;1052;-50
2022/08/02 08:07:10;;;;;;;;;;;21.60;47.50;;;;;;483239;246;2122;-49
2022/08/02 08:09:11;;;;;;;;;;;21.60;47.50;;;;;;483273;246;1213;-50
2022/08/02 08:11:13;;;;;;;;;;;21.60;47.60;;;;;;483421;246;1221;-50
2022/08/02 08:13:14;;;;;;;;;;;21.60;47.50;;;;;;483382;246;1270;-50
2022/08/02 08:15:15;;;;;;;;;;;21.60;47.50;;;;;;483251;246;1105;-50
2022/08/02 08:17:17;;;;;;;;;;;21.60;47.50;;;;;;483273;246;1096;-50
2022/08/02 08:19:18;;;;;;;;;;;21.60;47.50;;;;;;483226;246;1086;-49
2022/08/02 08:21:19;;;;;;;;;;;21.60;47.60;;;;;;483232;246;1105;-50
2022/08/02 08:23:21;;;;;;;;;;;21.60;47.60;;;;;;483141;246;1248;-50
2022/08/02 08:25:22;;;;;;;;;;;21.60;47.60;;;;;;483307;246;1096;-50
2022/08/02 08:27:23;;;;;;;;;;;21.60;47.60;;;;;;483302;246;2188;-50
2022/08/02 08:29:25;;;;;;;;;;;21.60;47.60;;;;;;483148;246;1220;-50
2022/08/02 08:31:27;;;;;;;;;;;21.70;47.70;;;;;;482845;246;1170;-50
2022/08/02 08:33:28;;;;;;;;;;;21.60;47.70;;;;;;490458;242;1141;-50
2022/08/02 08:35:29;;;;;;;;;;;21.60;47.70;;;;;;483523;246;1066;-49
2022/08/02 08:37:30;;;;;;;;;;;21.60;47.70;;;;;;483281;246;1259;-50
2022/08/02 08:39:32;;;;;;;;;;;21.60;47.70;;;;;;483168;246;1225;-50
2022/08/02 08:41:33;;;;;;;;;;;21.70;47.70;;;;;;483056;246;1251;-50
2022/08/02 08:43:35;;;;;;;;;;;21.70;47.60;;;;;;483044;246;1285;-50
2022/08/02 08:45:36;;;;;;;;;;;21.60;47.60;;;;;;483119;246;1254;-50
2022/08/02 08:47:37;;;;;;;;;;;21.60;47.60;;;;;;483138;246;2195;-50
2022/08/02 08:49:38;;;;;;;;;;;21.60;47.50;;;;;;483064;246;1203;-50
2022/08/02 08:51:40;;;;;;;;;;;21.70;47.60;;;;;;483105;246;1293;-50
2022/08/02 08:53:41;;;;;;;;;;;21.70;47.60;;;;;;483071;246;1477;-50
2022/08/02 08:55:43;;;;;;;;;;;21.60;47.60;;;;;;483117;246;1210;-50
2022/08/02 08:57:44;;;;;;;;;;;21.60;47.60;;;;;;483050;246;2321;-50
2022/08/02 08:59:45;;;;;;;;;;;21.60;47.60;;;;;;483246;246;1092;-51
2022/08/02 09:01:46;;;;;;;;;;;21.60;47.60;;;;;;483209;246;1216;-50
2022/08/02 09:03:48;;;;;;;;;;;21.60;47.60;;;;;;483500;246;1275;-50
2022/08/02 09:05:49;;;;;;;;;;;21.60;47.60;;;;;;483060;246;1238;-50
2022/08/02 09:07:50;;;;;;;;;;;21.60;47.50;;;;;;483145;246;2184;-50
2022/08/02 09:09:52;;;;;;;;;;;21.60;47.50;;;;;;483240;246;1263;-50
2022/08/02 09:11:53;;;;;;;;;;;21.60;47.50;;;;;;483050;246;1344;-50
2022/08/02 09:13:54;;;;;;;;;;;21.60;47.40;;;;;;483056;246;1282;-50
2022/08/02 09:15:56;;;;;;;;;;;21.60;47.40;;;;;;483034;246;1353;-50
2022/08/02 09:17:57;;;;;;;;;;;21.60;47.50;;;;;;483158;246;1265;-50
2022/08/02 09:19:59;;;;;;;;;;;21.60;47.40;;;;;;483169;246;1235;-50
2022/08/02 09:22:00;;;;;;;;;;;21.70;47.40;;;;;;483208;246;1161;-50
2022/08/02 09:24:02;;;;;;;;;;;21.70;47.50;;;;;;483226;246;1193;-50
2022/08/02 09:26:03;;;;;;;;;;;21.70;47.40;;;;;;483096;246;1148;-50
2022/08/02 09:28:05;;;;;;;;;;;21.60;47.40;;;;;;483219;246;2184;-50
2022/08/02 09:30:06;;;;;;;;;;;21.60;47.40;;;;;;483217;246;1210;-50
2022/08/02 09:32:08;;;;;;;;;;;21.60;47.40;;;;;;483081;246;1389;-50
2022/08/02 09:34:09;;;;;;;;;;;21.60;47.40;;;;;;483051;246;1098;-49
2022/08/02 09:36:11;;;;;;;;;;;21.60;47.40;;;;;;483060;246;1107;-50
2022/08/02 09:38:12;;;;;;;;;;;21.60;47.40;;;;;;483043;246;1159;-50
2022/08/02 09:40:14;;;;;;;;;;;21.70;47.50;;;;;;483291;246;1201;-50
2022/08/02 09:42:15;;;;;;;;;;;21.70;47.40;;;;;;483319;246;1163;-50
2022/08/02 09:44:16;;;;;;;;;;;21.70;47.40;;;;;;483147;246;1071;-50
2022/08/02 09:46:18;;;;;;;;;;;21.70;47.40;;;;;;483056;246;1089;-50
2022/08/02 09:48:19;;;;;;;;;;;21.70;47.40;;;;;;483041;246;2439;-50
2022/08/02 09:50:20;;;;;;;;;;;21.70;47.40;;;;;;483175;246;1190;-49
2022/08/02 09:52:22;;;;;;;;;;;21.70;47.40;;;;;;483136;246;1085;-50
2022/08/02 09:54:23;;;;;;;;;;;21.70;47.40;;;;;;483176;246;1285;-50
2022/08/02 09:56:25;;;;;;;;;;;21.60;47.30;;;;;;483163;246;1307;-50
2022/08/02 09:58:26;;;;;;;;;;;21.70;47.40;;;;;;483284;246;1253;-50
2022/08/02 10:00:27;;;;;;;;;;;21.70;47.40;;;;;;483318;246;1286;-50
2022/08/02 10:02:28;;;;;;;;;;;21.70;47.40;;;;;;483168;246;1313;-50
2022/08/02 10:04:30;;;;;;;;;;;21.60;47.30;;;;;;483037;246;1191;-50
2022/08/02 10:06:31;;;;;;;;;;;21.70;47.30;;;;;;483086;246;1264;-50
2022/08/02 10:08:32;;;;;;;;;;;21.70;47.40;;;;;;483162;246;2199;-49
2022/08/02 10:10:34;;;;;;;;;;;21.70;47.40;;;;;;483041;246;1333;-50
2022/08/02 10:12:36;;;;;;;;;;;21.60;47.30;;;;;;483057;246;1087;-50
2022/08/02 10:14:37;;;;;;;;;;;21.60;47.30;;;;;;483266;246;1416;-50
2022/08/02 10:16:38;;;;;;;;;;;21.70;47.30;;;;;;483074;246;1232;-50
2022/08/02 10:18:40;;;;;;;;;;;21.60;47.30;;;;;;482966;246;2186;-50
2022/08/02 10:20:41;;;;;;;;;;;21.60;47.30;;;;;;482930;246;1298;-50
2022/08/02 10:22:42;;;;;;;;;;;21.60;47.30;;;;;;483167;246;1400;-50
2022/08/02 10:24:44;;;;;;;;;;;21.70;47.40;;;;;;483108;246;1294;-51
2022/08/02 10:26:45;;;;;;;;;;;21.60;47.30;;;;;;483393;246;1156;-50
2022/08/02 10:28:46;;;;;;;;;;;21.70;47.30;;;;;;483229;246;2136;-50
2022/08/02 10:30:48;;;;;;;;;;;21.70;47.30;;;;;;483261;246;1207;-50
2022/08/02 10:32:49;;;;;;;;;;;21.70;47.30;;;;;;483118;246;1337;-50
2022/08/02 10:34:51;;;;;;;;;;;21.70;47.30;;;;;;483878;246;1354;-50
2022/08/02 10:36:52;;;;;;;;;;;21.70;47.40;;;;;;483058;246;1229;-50
2022/08/02 10:38:53;;;;;;;;;;;21.70;47.40;;;;;;483131;246;1274;-50
2022/08/02 10:40:55;;;;;;;;;;;21.70;47.40;;;;;;483830;246;1111;-50
2022/08/02 10:42:58;;;;;;;;;;;21.70;47.40;;;;;;483979;246;1100;-50
2022/08/02 10:44:59;;;;;;;;;;;21.70;47.40;;;;;;483525;246;1035;-50
2022/08/02 10:47:01;;;;;;;;;;;21.70;47.30;;;;;;483510;246;1062;-50
2022/08/02 10:49:02;;;;;;;;;;;21.70;47.30;;;;;;490813;243;2168;-50
2022/08/02 10:51:03;;;;;;;;;;;21.70;47.30;;;;;;484257;246;1239;-50
2022/08/02 10:53:05;;;;;;;;;;;21.70;47.30;;;;;;491382;242;1352;-50
2022/08/02 10:55:06;;;;;;;;;;;21.70;47.30;;;;;;483892;242;1192;-50
2022/08/02 10:57:07;;;;;;;;;;;21.70;47.20;;;;;;483472;246;1017;-50
2022/08/02 10:59:09;;;;;;;;;;;21.70;47.30;;;;;;483342;246;1236;-50
2022/08/02 11:01:10;;;;;;;;;;;21.70;47.30;;;;;;483277;246;1305;-49
2022/08/02 11:03:11;;;;;;;;;;;21.70;47.20;;;;;;483299;246;1234;-50
2022/08/02 11:05:13;;;;;;;;;;;21.70;47.20;;;;;;483254;246;1336;-50
2022/08/02 11:07:15;;;;;;;;;;;21.70;47.20;;;;;;483108;246;2169;-50
2022/08/02 11:09:15;;;;;;;;;;;21.70;47.20;;;;;;483064;246;2522;-50
2022/08/02 11:11:17;;;;;;;;;;;21.70;47.10;;;;;;483388;246;1950;-50
2022/08/02 11:13:19;;;;;;;;;;;21.70;47.10;;;;;;483356;246;1121;-50
2022/08/02 11:15:20;;;;;;;;;;;21.70;47.10;;;;;;483173;246;1290;-50
2022/08/02 11:17:21;;;;;;;;;;;21.70;47.10;;;;;;483111;246;1306;-50
2022/08/02 11:19:23;;;;;;;;;;;21.70;47.20;;;;;;483208;246;1438;-50
2022/08/02 11:21:24;;;;;;;;;;;21.60;47.20;;;;;;483266;246;1069;-50
2022/08/02 11:23:25;;;;;;;;;;;21.60;47.20;;;;;;483210;246;1102;-50
2022/08/02 11:25:27;;;;;;;;;;;21.60;47.10;;;;;;483410;246;1334;-50
2022/08/02 11:27:30;;;;;;;;;;;21.70;47.20;;;;;;483266;246;2195;-50
2022/08/02 11:29:29;;;;;;;;;;;21.70;47.10;;;;;;483246;246;1553;-50
2022/08/02 11:31:31;;;;;;;;;;;21.70;47.10;;;;;;483356;246;1050;-50
2022/08/02 11:33:32;;;;;;;;;;;21.70;47.10;;;;;;483350;246;1230;-50
2022/08/02 11:35:33;;;;;;;;;;;21.70;47.10;;;;;;483397;246;1234;-50
2022/08/02 11:37:35;;;;;;;;;;;21.60;47.00;;;;;;483343;246;1191;-50
2022/08/02 11:39:36;;;;;;;;;;;21.70;47.20;;;;;;483301;246;1116;-50
2022/08/02 11:41:37;;;;;;;;;;;21.70;47.10;;;;;;483325;246;1234;-50
2022/08/02 11:43:39;;;;;;;;;;;21.70;47.10;;;;;;483453;246;1238;-49
2022/08/02 11:45:40;;;;;;;;;;;21.70;47.10;;;;;;483176;246;1083;-49
2022/08/02 11:47:41;;;;;;;;;;;21.70;47.10;;;;;;483133;246;2200;-50
2022/08/02 11:49:43;;;;;;;;;;;21.70;47.00;;;;;;483240;246;1240;-50
2022/08/02 11:51:44;;;;;;;;;;;21.80;47.00;;;;;;483315;246;1328;-49
2022/08/02 11:53:45;;;;;;;;;;;21.80;47.00;;;;;;483234;246;1323;-49
2022/08/02 11:55:47;;;;;;;;;;;21.80;47.00;;;;;;483312;246;1280;-50
2022/08/02 11:57:49;;;;;;;;;;;21.80;47.00;;;;;;483365;246;1312;-49